Map

Track Data

SID SEASON NUMBER BASIN SUBBASIN NAME ISO_TIME NATURE LAT LON WMO_WIND WMO_PRES WMO_AGENCY TRACK_TYPE DIST2LAND LANDFALL IFLAG USA_AGENCY USA_ATCF_ID USA_LAT USA_LON USA_RECORD USA_STATUS USA_WIND USA_PRES USA_SSHS USA_R34_NE USA_R34_SE USA_R34_SW USA_R34_NW USA_R50_NE USA_R50_SE USA_R50_SW USA_R50_NW USA_R64_NE USA_R64_SE USA_R64_SW USA_R64_NW USA_POCI USA_ROCI USA_RMW USA_EYE TOKYO_LAT TOKYO_LON TOKYO_GRADE TOKYO_WIND TOKYO_PRES TOKYO_R50_DIR TOKYO_R50_LONG TOKYO_R50_SHORT TOKYO_R30_DIR TOKYO_R30_LONG TOKYO_R30_SHORT TOKYO_LAND CMA_LAT CMA_LON CMA_CAT CMA_WIND CMA_PRES HKO_LAT HKO_LON HKO_CAT HKO_WIND HKO_PRES NEWDELHI_LAT NEWDELHI_LON NEWDELHI_GRADE NEWDELHI_WIND NEWDELHI_PRES NEWDELHI_CI NEWDELHI_DP NEWDELHI_POCI REUNION_LAT REUNION_LON REUNION_TYPE REUNION_WIND REUNION_PRES REUNION_TNUM REUNION_CI REUNION_RMW REUNION_R34_NE REUNION_R34_SE REUNION_R34_SW REUNION_R34_NW REUNION_R50_NE REUNION_R50_SE REUNION_R50_SW REUNION_R50_NW REUNION_R64_NE REUNION_R64_SE REUNION_R64_SW REUNION_R64_NW BOM_LAT BOM_LON BOM_TYPE BOM_WIND BOM_PRES BOM_TNUM BOM_CI BOM_RMW BOM_R34_NE BOM_R34_SE BOM_R34_SW BOM_R34_NW BOM_R50_NE BOM_R50_SE BOM_R50_SW BOM_R50_NW BOM_R64_NE BOM_R64_SE BOM_R64_SW BOM_R64_NW BOM_ROCI BOM_POCI BOM_EYE BOM_POS_METHOD BOM_PRES_METHOD NADI_LAT NADI_LON NADI_CAT NADI_WIND NADI_PRES WELLINGTON_LAT WELLINGTON_LON WELLINGTON_WIND WELLINGTON_PRES DS824_LAT DS824_LON DS824_STAGE DS824_WIND DS824_PRES TD9636_LAT TD9636_LON TD9636_STAGE TD9636_WIND TD9636_PRES TD9635_LAT TD9635_LON TD9635_WIND TD9635_PRES TD9635_ROCI NEUMANN_LAT NEUMANN_LON NEUMANN_CLASS NEUMANN_WIND NEUMANN_PRES MLC_LAT MLC_LON MLC_CLASS MLC_WIND MLC_PRES USA_GUST BOM_GUST BOM_GUST_PER REUNION_GUST REUNION_GUST_PER USA_SEAHGT USA_SEARAD_NE USA_SEARAD_SE USA_SEARAD_SW USA_SEARAD_NW STORM_SPEED STORM_DIR
1894238N17114 1894 35 WP MM NOT_NAMED 1894-08-25 16:00:00 NR 16.5000 113.800 main 434 410 __________O___ -1 16.5000 113.800 7 7 307
1894238N17114 1894 35 WP MM NOT_NAMED 1894-08-25 18:00:00 NR 16.6448 113.600 main 410 364 __________P___ -1 16.6448 113.600 7 7 307
1894238N17114 1894 35 WP MM NOT_NAMED 1894-08-25 21:00:00 NR 16.8637 113.293 main 364 325 __________P___ -1 16.8637 113.293 7 7 306
1894238N17114 1894 35 WP MM NOT_NAMED 1894-08-26 00:00:00 NR 17.0878 112.971 main 325 278 __________P___ -1 17.0878 112.971 7 8 305
1894238N17114 1894 35 WP MM NOT_NAMED 1894-08-26 03:00:00 NR 17.3201 112.623 main 278 263 __________P___ -1 17.3201 112.623 7 8 305
1894238N17114 1894 35 WP MM NOT_NAMED 1894-08-26 04:00:00 NR 17.4000 112.500 main 263 224 __________O___ -1 17.4000 112.500 3 9 304
1894238N17114 1894 35 WP MM NOT_NAMED 1894-08-26 06:00:00 NR 17.5635 112.242 main 224 177 __________P___ -1 17.5635 112.242 3 9 303
1894238N17114 1894 35 WP MM NOT_NAMED 1894-08-26 09:00:00 NR 17.8152 111.830 main 177 123 __________P___ -1 17.8152 111.830 3 10 302
1894238N17114 1894 35 WP MM NOT_NAMED 1894-08-26 12:00:00 NR 18.0690 111.396 main 123 69 __________P___ -1 18.0690 111.396 3 10 301
1894238N17114 1894 35 WP MM NOT_NAMED 1894-08-26 15:00:00 NR 18.3187 110.950 main 69 53 __________P___ -1 18.3187 110.950 3 10 300
1894238N17114 1894 35 WP MM NOT_NAMED 1894-08-26 16:00:00 NR 18.4000 110.800 main 53 15 __________O___ -1 18.4000 110.800 4 10 301
1894238N17114 1894 35 WP MM NOT_NAMED 1894-08-26 18:00:00 NR 18.5714 110.501 main 15 0 __________P___ -1 18.5714 110.501 4 10 301
1894238N17114 1894 35 WP MM NOT_NAMED 1894-08-26 21:00:00 NR 18.8225 110.045 main 0 0 __________P___ -1 18.8225 110.045 4 10 299
1894238N17114 1894 35 WP MM NOT_NAMED 1894-08-27 00:00:00 NR 19.0527 109.590 main 0 0 __________P___ -1 19.0527 109.590 4 10 296
1894238N17114 1894 35 WP MM NOT_NAMED 1894-08-27 03:00:00 NR 19.2463 109.145 main 0 0 __________P___ -1 19.2463 109.145 4 9 294
1894238N17114 1894 35 WP MM NOT_NAMED 1894-08-27 04:00:00 NR 19.3000 109.000 main 0 0 __________O___ -1 19.3000 109.000 4 8 289
1894238N17114 1894 35 WP MM NOT_NAMED 1894-08-27 06:00:00 NR 19.3839 108.721 main 0 0 __________P___ -1 19.3839 108.721 4 8 285
1894238N17114 1894 35 WP MM NOT_NAMED 1894-08-27 09:00:00 NR 19.4722 108.317 main 38 38 __________P___ -1 19.4722 108.317 4 8 281
1894238N17114 1894 35 WP MM NOT_NAMED 1894-08-27 12:00:00 NR 19.5321 107.922 main 76 76 __________P___ -1 19.5321 107.922 4 7 278
1894238N17114 1894 35 WP MM NOT_NAMED 1894-08-27 15:00:00 NR 19.5822 107.531 main 120 114 __________P___ -1 19.5822 107.531 4 7 278
1894238N17114 1894 35 WP MM NOT_NAMED 1894-08-27 16:00:00 NR 19.6000 107.400 main 114 91 __________O___ -1 19.6000 107.400 4 8 279
1894238N17114 1894 35 WP MM NOT_NAMED 1894-08-27 18:00:00 NR 19.6401 107.137 main 91 59 __________P___ -1 19.6401 107.137 4 8 280
1894238N17114 1894 35 WP MM NOT_NAMED 1894-08-27 21:00:00 NR 19.7104 106.739 main 59 24 __________P___ -1 19.7104 106.739 4 8 281
1894238N17114 1894 35 WP MM NOT_NAMED 1894-08-28 00:00:00 NR 19.7890 106.338 main 24 0 __________P___ -1 19.7890 106.338 4 8 282
1894238N17114 1894 35 WP MM NOT_NAMED 1894-08-28 03:00:00 NR 19.8720 105.935 main 0 0 __________P___ -1 19.8720 105.935 4 8 282
1894238N17114 1894 35 WP MM NOT_NAMED 1894-08-28 04:00:00 NR 19.9000 105.800 main 0 __________O___ -1 19.9000 105.800 7 8 283

Digital Typhoon Data and Search

About IBTrACS Database

This database is a web-friendly format of International Best Track Archive for Climate Stewardship (IBTrACS), a global best track data archive curated by NOAA dating back to 1842.

Updated: 2021-12-08